Time;durP1;ratioP1;P1;durP2;ratioP2;P2;SDS_P1;SDS_P2;PMS_P1;PMS_P2;Temp;Humidity;BMP_temperature;BMP_pressure;BME280_temperature;BME280_humidity;BME280_pressure;Samples;Min_cycle;Max_cycle;Signal;HPM_P1;HPM_P2
2022/06/23 00:02:14;;;;;;;7.32;6.63;;;13.60;99.90;;;;;;5009152;28;20081;-45
2022/06/23 00:04:45;;;;;;;8.50;7.70;;;13.50;99.90;;;;;;5044023;28;20789;-44
2022/06/23 00:07:19;;;;;;;8.45;7.43;;;13.40;99.90;;;;;;5045238;28;20701;-43
2022/06/23 00:09:44;;;;;;;9.82;7.22;;;13.40;99.90;;;;;;5047849;28;20056;-46
2022/06/23 00:12:25;;;;;;;8.55;7.75;;;13.40;99.90;;;;;;5044495;28;20049;-50
2022/06/23 00:14:56;;;;;;;8.63;7.22;;;13.40;99.90;;;;;;5043904;28;20045;-46
2022/06/23 00:17:34;;;;;;;8.73;6.97;;;13.40;99.90;;;;;;5025368;28;20064;-46
2022/06/23 00:20:11;;;;;;;8.27;7.47;;;13.40;99.90;;;;;;5044491;28;20136;-43
2022/06/23 00:22:39;;;;;;;8.30;7.50;;;13.30;99.90;;;;;;5043203;28;20503;-47
2022/06/23 00:25:07;;;;;;;9.38;8.50;;;13.30;99.90;;;;;;5042918;28;20087;-45
2022/06/23 00:27:40;;;;;;;9.13;8.30;;;13.20;99.90;;;;;;5041839;28;20045;-44
2022/06/23 00:30:36;;;;;;;10.23;7.60;;;13.30;99.90;;;;;;5042069;28;20049;-43
2022/06/23 00:33:07;;;;;;;8.25;7.45;;;13.20;99.90;;;;;;5042785;28;20498;-45
2022/06/23 00:35:34;;;;;;;10.00;8.05;;;13.20;99.90;;;;;;5042955;28;20467;-49
2022/06/23 00:38:00;;;;;;;8.88;8.07;;;13.20;99.90;;;;;;5043783;28;20403;-46
2022/06/23 00:40:26;;;;;;;8.75;7.95;;;13.10;99.90;;;;;;5036112;28;20045;-47
2022/06/23 00:42:54;;;;;;;10.25;8.18;;;13.10;99.90;;;;;;5042611;28;20052;-46
2022/06/23 00:45:44;;;;;;;11.80;8.43;;;13.10;99.90;;;;;;5042456;28;20544;-42
2022/06/23 00:48:37;;;;;;;9.68;8.52;;;13.10;99.90;;;;;;5041920;28;20559;-46
2022/06/23 00:51:45;;;;;;;9.63;8.50;;;13.20;99.90;;;;;;5042954;28;20119;-44
2022/06/23 00:54:19;;;;;;;10.75;9.45;;;13.10;99.90;;;;;;4980405;28;20090;-46
2022/06/23 00:56:50;;;;;;;9.32;8.35;;;13.10;99.90;;;;;;4980633;28;20054;-45
2022/06/23 00:59:19;;;;;;;8.80;8.00;;;13.10;99.90;;;;;;4965251;28;20054;-46
2022/06/23 01:02:03;;;;;;;9.85;8.90;;;13.10;99.90;;;;;;4981216;28;20046;-44
2022/06/23 01:04:28;;;;;;;12.63;9.32;;;13.00;99.90;;;;;;4979990;28;20093;-43
2022/06/23 01:07:16;;;;;;;9.77;8.77;;;13.00;99.90;;;;;;4964769;28;20712;-46
2022/06/23 01:09:52;;;;;;;10.55;9.50;;;13.00;99.90;;;;;;4964732;28;20065;-44
2022/06/23 01:12:30;;;;;;;11.10;10.05;;;13.00;99.90;;;;;;4980800;28;20542;-46
2022/06/23 01:15:05;;;;;;;11.48;9.63;;;13.00;99.90;;;;;;4980254;28;20564;-43
2022/06/23 01:17:41;;;;;;;13.57;10.27;;;12.90;99.90;;;;;;4979921;28;20054;-45
2022/06/23 01:20:15;;;;;;;10.60;9.55;;;12.90;99.90;;;;;;4980624;28;20510;-46
2022/06/23 01:22:53;;;;;;;10.25;8.77;;;12.90;99.90;;;;;;4981125;28;20073;-45
2022/06/23 01:26:00;;;;;;;10.18;9.10;;;12.80;99.90;;;;;;4982921;28;20133;-44
2022/06/23 01:28:29;;;;;;;11.15;10.07;;;12.80;99.90;;;;;;4976015;28;20065;-44
2022/06/23 01:31:16;;;;;;;10.73;9.63;;;12.80;99.90;;;;;;5040497;28;20123;-47
2022/06/23 01:34:26;;;;;;;10.68;9.20;;;12.80;99.90;;;;;;5048033;28;20063;-47
2022/06/23 01:37:10;;;;;;;10.65;9.68;;;12.70;99.90;;;;;;5041420;28;20063;-45
2022/06/23 01:40:20;;;;;;;13.45;10.20;;;12.70;99.90;;;;;;5042328;28;20059;-45
2022/06/23 01:43:01;;;;;;;10.45;8.77;;;12.70;99.90;;;;;;4981029;28;20054;-44
2022/06/23 01:45:57;;;;;;;11.63;10.43;;;12.70;99.90;;;;;;4976987;28;20402;-44
2022/06/23 01:48:52;;;;;;;12.07;9.93;;;12.70;99.90;;;;;;4984950;28;20608;-45
2022/06/23 01:51:40;;;;;;;11.75;9.85;;;12.70;99.90;;;;;;4968533;28;20053;-45
2022/06/23 01:54:23;;;;;;;13.18;10.68;;;12.70;99.90;;;;;;4983712;28;20081;-45
2022/06/23 01:56:58;;;;;;;12.07;10.88;;;12.70;99.90;;;;;;4983674;28;20492;-45
2022/06/23 01:59:43;;;;;;;13.68;10.35;;;12.70;99.90;;;;;;4983617;28;20080;-45
2022/06/23 02:02:33;;;;;;;15.05;10.93;;;12.70;99.90;;;;;;4981092;28;20050;-45
2022/06/23 02:05:04;;;;;;;12.68;10.80;;;12.80;99.90;;;;;;4979385;28;20661;-45
2022/06/23 02:07:33;;;;;;;12.82;10.65;;;12.80;99.90;;;;;;4963622;28;20050;-47
2022/06/23 02:10:30;;;;;;;11.82;10.20;;;12.80;99.90;;;;;;4979658;28;20050;-46
2022/06/23 02:12:59;;;;;;;12.77;11.27;;;12.80;99.90;;;;;;4989465;28;20088;-45
2022/06/23 02:15:34;;;;;;;13.82;11.40;;;12.80;99.90;;;;;;5021369;28;20100;-46
2022/06/23 02:18:26;;;;;;;11.65;10.45;;;12.80;99.90;;;;;;5022561;28;20518;-45
2022/06/23 02:20:58;;;;;;;12.75;11.35;;;12.80;99.90;;;;;;4990294;28;20498;-42
2022/06/23 02:23:36;;;;;;;14.90;11.02;;;12.80;99.90;;;;;;5021386;28;20045;-45
2022/06/23 02:26:26;;;;;;;15.68;11.18;;;12.80;99.90;;;;;;5036708;28;20089;-43
2022/06/23 02:29:17;;;;;;;14.05;11.65;;;12.70;99.90;;;;;;5021445;28;20822;-45
2022/06/23 02:31:55;;;;;;;12.52;11.23;;;12.70;99.90;;;;;;5021919;28;20431;-46
2022/06/23 02:34:26;;;;;;;11.52;10.30;;;12.60;99.90;;;;;;5021706;28;20045;-47
2022/06/23 02:37:29;;;;;;;11.82;10.63;;;12.50;99.90;;;;;;5021545;28;20071;-46
2022/06/23 02:39:57;;;;;;;11.95;10.18;;;12.50;99.90;;;;;;5022745;28;20045;-46
2022/06/23 02:42:29;;;;;;;12.80;11.15;;;12.50;99.90;;;;;;5023406;28;20061;-45
2022/06/23 02:45:17;;;;;;;12.70;10.98;;;12.50;99.90;;;;;;5022065;28;20482;-45
2022/06/23 02:48:08;;;;;;;11.10;10.05;;;12.40;99.90;;;;;;5018772;28;20061;-45
2022/06/23 02:50:58;;;;;;;13.82;11.98;;;12.40;99.90;;;;;;5020097;28;20089;-45
2022/06/23 02:53:48;;;;;;;12.85;10.73;;;12.40;99.90;;;;;;5018846;28;20123;-46
2022/06/23 02:56:29;;;;;;;12.63;11.32;;;12.50;99.90;;;;;;5020836;28;20060;-45
2022/06/23 02:59:11;;;;;;;15.10;10.95;;;12.40;99.90;;;;;;5036523;28;20064;-44
2022/06/23 03:01:56;;;;;;;13.00;11.38;;;12.50;99.90;;;;;;5020908;28;20620;-44
2022/06/23 03:04:35;;;;;;;14.00;11.32;;;12.50;99.90;;;;;;5018952;28;20057;-44
2022/06/23 03:07:11;;;;;;;14.15;11.55;;;12.50;99.90;;;;;;5020595;28;20096;-44
2022/06/23 03:09:47;;;;;;;13.63;11.93;;;12.50;99.90;;;;;;5020807;28;20107;-45
2022/06/23 03:12:34;;;;;;;15.85;12.32;;;12.50;99.90;;;;;;5020379;28;20466;-44
2022/06/23 03:15:02;;;;;;;16.25;11.80;;;12.50;99.90;;;;;;5020924;28;20064;-43
2022/06/23 03:17:38;;;;;;;18.77;12.68;;;12.50;99.90;;;;;;5021168;28;20091;-43
2022/06/23 03:20:20;;;;;;;16.85;13.52;;;12.50;99.90;;;;;;5020098;28;20353;-44
2022/06/23 03:22:58;;;;;;;14.38;12.60;;;12.60;99.90;;;;;;5019860;28;20456;-43
2022/06/23 03:25:39;;;;;;;14.65;12.02;;;12.60;99.90;;;;;;5020834;28;20108;-44
2022/06/23 03:28:05;;;;;;;14.48;11.80;;;12.60;99.90;;;;;;5021417;28;20053;-44
2022/06/23 03:30:39;;;;;;;14.25;12.75;;;12.60;99.90;;;;;;5020922;28;20049;-44
2022/06/23 03:33:23;;;;;;;16.98;12.23;;;12.60;99.90;;;;;;5020185;28;20046;-43
2022/06/23 03:36:14;;;;;;;16.77;13.15;;;12.60;99.90;;;;;;5003110;28;20612;-44
2022/06/23 03:41:39;;;;;;;13.85;12.30;;;12.70;99.90;;;;;;5008024;28;20060;-43
2022/06/23 03:44:23;;;;;;;16.15;12.77;;;12.70;99.90;;;;;;5020130;28;20045;-43
2022/06/23 03:46:54;;;;;;;15.80;13.13;;;12.70;99.90;;;;;;5020105;28;20435;-43
2022/06/23 03:49:38;;;;;;;13.50;12.10;;;12.80;99.90;;;;;;5041116;28;20060;-46
2022/06/23 03:52:20;;;;;;;16.10;13.60;;;12.80;99.90;;;;;;5022178;28;20044;-42
2022/06/23 03:55:11;;;;;;;16.00;13.05;;;12.80;99.90;;;;;;5040026;28;20136;-45
2022/06/23 03:57:44;;;;;;;14.13;12.43;;;12.90;99.90;;;;;;5045031;28;20044;-46
2022/06/23 04:00:22;;;;;;;;;;;13.20;99.90;;;;;;5036814;28;20132;-45
2022/06/23 04:03:04;;;;;;;13.13;11.75;;;14.00;99.90;;;;;;5039934;28;19925;-45
2022/06/23 04:05:56;;;;;;;13.90;12.05;;;15.00;99.90;;;;;;5043483;28;20467;-45
2022/06/23 04:08:24;;;;;;;13.02;11.80;;;16.00;99.90;;;;;;5026445;28;20053;-44
2022/06/23 04:10:53;;;;;;;13.30;11.85;;;16.80;99.90;;;;;;5043676;28;20045;-45
2022/06/23 04:13:34;;;;;;;13.63;12.15;;;17.50;99.90;;;;;;5043271;28;20048;-45
2022/06/23 04:16:09;;;;;;;13.20;11.90;;;18.10;99.90;;;;;;5043879;28;20099;-46
2022/06/23 04:18:40;;;;;;;14.90;11.93;;;18.90;99.90;;;;;;5036554;28;20063;-45
2022/06/23 04:21:16;;;;;;;13.98;12.48;;;19.30;99.90;;;;;;5016908;28;20502;-47
2022/06/23 04:23:50;;;;;;;13.85;12.48;;;20.10;99.90;;;;;;5043525;28;20106;-43
2022/06/23 04:26:39;;;;;;;14.02;12.63;;;20.90;99.90;;;;;;5043542;28;20041;-43
2022/06/23 04:29:30;;;;;;;13.80;12.60;;;21.80;99.90;;;;;;5005282;28;20089;-46
2022/06/23 04:32:13;;;;;;;13.20;11.80;;;22.50;99.90;;;;;;5038926;28;20526;-47
2022/06/23 04:34:48;;;;;;;;;;;23.10;99.90;;;;;;5043004;28;20053;-45
2022/06/23 04:38:03;;;;;;;15.75;11.65;;;23.30;99.90;;;;;;5021604;28;20442;-44
2022/06/23 04:40:32;;;;;;;12.45;11.15;;;23.80;99.90;;;;;;5025429;28;20708;-45
2022/06/23 04:43:05;;;;;;;12.35;11.07;;;24.40;99.90;;;;;;5043353;28;20080;-44
2022/06/23 04:45:31;;;;;;;;;;;24.70;99.90;;;;;;5023395;28;20502;-48
2022/06/23 04:48:00;;;;;;;12.38;11.07;;;25.10;99.00;;;;;;5042895;28;19924;-45
2022/06/23 04:50:42;;;;;;;12.13;10.88;;;25.60;99.40;;;;;;5043989;28;20057;-47
2022/06/23 04:53:22;;;;;;;12.53;11.10;;;25.80;97.00;;;;;;5042846;28;20084;-44
2022/06/23 04:56:14;;;;;;;11.55;10.55;;;26.00;97.50;;;;;;5043035;28;20284;-46
2022/06/23 04:58:50;;;;;;;12.05;10.95;;;26.20;96.90;;;;;;5013925;28;20069;-44
2022/06/23 05:01:18;;;;;;;11.77;10.68;;;26.30;96.40;;;;;;5043615;28;20053;-47
2022/06/23 05:03:49;;;;;;;11.15;9.90;;;26.50;96.50;;;;;;5020947;28;20443;-47
2022/06/23 05:06:40;;;;;;;11.23;10.20;;;26.90;96.20;;;;;;5041384;28;20606;-44
2022/06/23 05:09:34;;;;;;;11.20;10.13;;;27.30;95.00;;;;;;5039628;28;20103;-46
2022/06/23 05:12:04;;;;;;;12.30;10.85;;;27.70;94.80;;;;;;5022261;28;20487;-43
2022/06/23 05:14:45;;;;;;;10.52;9.63;;;28.00;94.20;;;;;;5030119;28;20384;-45
2022/06/23 05:17:17;;;;;;;10.48;9.57;;;28.30;93.00;;;;;;5042289;28;20051;-49
2022/06/23 05:19:43;;;;;;;10.15;9.15;;;28.50;93.60;;;;;;5040476;28;20590;-49
2022/06/23 05:22:15;;;;;;;11.70;10.38;;;28.60;93.40;;;;;;5042410;28;20810;-45
2022/06/23 05:24:45;;;;;;;11.02;9.90;;;29.10;92.40;;;;;;5042381;28;20539;-45
2022/06/23 05:27:33;;;;;;;11.50;9.30;;;29.40;92.20;;;;;;5042381;28;20045;-48
2022/06/23 05:30:28;;;;;;;11.27;9.35;;;29.40;91.30;;;;;;5043148;28;20936;-47
2022/06/23 05:33:11;;;;;;;9.55;8.65;;;29.50;91.40;;;;;;5040163;28;20053;-45
2022/06/23 05:35:42;;;;;;;9.90;8.90;;;29.80;91.10;;;;;;5023822;28;20111;-45
2022/06/23 05:38:32;;;;;;;10.37;9.47;;;30.40;91.20;;;;;;5042263;28;20048;-44
2022/06/23 05:41:11;;;;;;;10.13;9.15;;;30.20;89.50;;;;;;5035261;28;20087;-47
2022/06/23 05:43:40;;;;;;;10.63;9.60;;;30.20;90.30;;;;;;5006852;28;20052;-47
2022/06/23 05:46:07;;;;;;;9.80;8.77;;;30.50;90.10;;;;;;5041129;28;20053;-45
2022/06/23 05:48:43;;;;;;;9.90;9.05;;;30.80;90.10;;;;;;5040969;28;20057;-45
2022/06/23 05:51:27;;;;;;;9.85;9.05;;;31.00;88.70;;;;;;5022907;28;20100;-46
2022/06/23 05:54:06;;;;;;;10.27;9.27;;;31.20;88.70;;;;;;5022966;28;20052;-46
2022/06/23 05:56:43;;;;;;;10.45;9.35;;;31.00;88.50;;;;;;5041531;28;20057;-45
2022/06/23 05:59:24;;;;;;;9.43;8.63;;;31.30;88.90;;;;;;5041658;28;20633;-48
2022/06/23 06:01:55;;;;;;;9.30;8.43;;;31.80;86.50;;;;;;5042366;28;20122;-48
2022/06/23 06:04:37;;;;;;;9.43;8.68;;;32.00;87.30;;;;;;5042329;28;20056;-49
2022/06/23 06:07:04;;;;;;;9.60;8.80;;;31.80;86.10;;;;;;5040041;28;20045;-45
2022/06/23 06:09:35;;;;;;;9.30;8.45;;;31.40;86.30;;;;;;5041394;28;20337;-48
2022/06/23 06:12:27;;;;;;;10.70;8.80;;;31.60;86.60;;;;;;5041107;28;20080;-47
2022/06/23 06:14:59;;;;;;;9.88;9.07;;;32.40;86.00;;;;;;5036804;28;20095;-47
2022/06/23 06:17:28;;;;;;;9.77;8.75;;;32.80;85.70;;;;;;5041253;28;20124;-48
2022/06/23 06:19:58;;;;;;;8.38;7.68;;;33.10;84.40;;;;;;5041726;28;20470;-46
2022/06/23 06:22:42;;;;;;;9.18;8.25;;;33.50;83.20;;;;;;5041253;28;20464;-45
2022/06/23 06:25:27;;;;;;;9.23;8.32;;;33.20;82.80;;;;;;5031878;28;20495;-46
2022/06/23 06:27:55;;;;;;;9.20;8.40;;;33.70;82.10;;;;;;5041417;28;20102;-47
2022/06/23 06:30:34;;;;;;;8.43;7.63;;;33.70;82.90;;;;;;5040437;28;20056;-47
2022/06/23 06:33:00;;;;;;;7.78;7.07;;;33.70;82.20;;;;;;5042012;28;20300;-48
2022/06/23 06:35:29;;;;;;;9.20;8.40;;;33.30;81.20;;;;;;5042417;28;20044;-47
2022/06/23 06:38:07;;;;;;;9.18;7.80;;;33.50;80.50;;;;;;5046025;28;20048;-47
2022/06/23 06:40:36;;;;;;;9.38;8.55;;;34.00;80.80;;;;;;5042583;28;20085;-51
2022/06/23 06:43:11;;;;;;;8.65;7.75;;;33.70;81.60;;;;;;5041755;28;20758;-46
2022/06/23 06:45:37;;;;;;;8.00;7.22;;;34.00;80.70;;;;;;5040927;28;20151;-49
2022/06/23 06:48:12;;;;;;;8.75;7.20;;;33.30;79.50;;;;;;5041322;28;20628;-46
2022/06/23 06:50:44;;;;;;;7.82;7.15;;;33.10;80.20;;;;;;5024039;28;20103;-47
2022/06/23 06:53:43;;;;;;;8.15;7.43;;;33.00;80.10;;;;;;5040783;28;20048;-51
2022/06/23 06:56:17;;;;;;;8.98;7.55;;;33.10;80.80;;;;;;5028939;28;20570;-46
2022/06/23 06:58:49;;;;;;;9.23;7.82;;;33.20;80.00;;;;;;5040896;28;20494;-47
2022/06/23 07:01:25;;;;;;;9.13;8.23;;;33.10;79.90;;;;;;5040817;28;20461;-48
2022/06/23 07:03:54;;;;;;;9.05;8.23;;;33.10;81.10;;;;;;5039870;28;20053;-49
2022/06/23 07:06:29;;;;;;;9.57;8.60;;;32.60;81.30;;;;;;5022019;28;20068;-46
2022/06/23 07:09:36;;;;;;;10.40;8.35;;;32.50;81.50;;;;;;5040848;28;20124;-49
2022/06/23 07:12:19;;;;;;;10.60;8.20;;;32.90;80.70;;;;;;5040324;28;20056;-47
2022/06/23 07:14:51;;;;;;;9.80;8.43;;;32.90;80.60;;;;;;5040892;28;20041;-49
2022/06/23 07:17:24;;;;;;;8.95;7.82;;;32.70;80.10;;;;;;5041351;28;20589;-46
2022/06/23 07:20:01;;;;;;;9.05;8.15;;;32.60;80.40;;;;;;5039846;28;20095;-46
2022/06/23 07:22:43;;;;;;;9.48;8.60;;;32.40;81.10;;;;;;5040982;28;20049;-48
2022/06/23 07:25:28;;;;;;;9.45;8.48;;;32.40;81.40;;;;;;5041124;28;20045;-49
2022/06/23 07:28:18;;;;;;;9.20;8.38;;;31.90;81.80;;;;;;5040871;28;20052;-49
2022/06/23 07:30:52;;;;;;;9.23;8.40;;;31.00;82.70;;;;;;5034165;28;20060;-48
2022/06/23 07:33:31;;;;;;;8.57;7.85;;;30.20;84.00;;;;;;5040664;28;20621;-44
2022/06/23 07:36:05;;;;;;;9.10;8.25;;;29.50;84.40;;;;;;5041270;28;20128;-45
2022/06/23 07:38:49;;;;;;;9.55;8.23;;;29.00;85.20;;;;;;5044484;28;20221;-46
2022/06/23 07:41:28;;;;;;;10.77;8.05;;;28.50;86.70;;;;;;5037916;28;20056;-48
2022/06/23 07:44:09;;;;;;;9.00;8.02;;;28.30;87.50;;;;;;5044156;28;20092;-49
2022/06/23 07:46:37;;;;;;;12.95;8.75;;;28.10;87.60;;;;;;5044274;28;20061;-47
2022/06/23 07:49:04;;;;;;;8.93;8.02;;;27.70;88.10;;;;;;5022524;28;20135;-51
2022/06/23 07:51:30;;;;;;;8.35;7.57;;;27.60;88.60;;;;;;5024882;28;20053;-46
2022/06/23 07:53:57;;;;;;;9.50;8.60;;;27.50;89.10;;;;;;5022082;28;20049;-51
2022/06/23 07:56:30;;;;;;;8.80;7.85;;;27.30;89.20;;;;;;5041286;28;20156;-47
2022/06/23 07:59:11;;;;;;;8.70;7.90;;;27.40;89.40;;;;;;5044349;28;20048;-47
2022/06/23 08:01:54;;;;;;;8.90;8.10;;;27.30;88.50;;;;;;5044652;28;20049;-48
2022/06/23 08:04:35;;;;;;;;;;;26.90;89.20;;;;;;5047270;28;20045;-47
2022/06/23 08:07:04;;;;;;;7.93;7.15;;;26.90;89.10;;;;;;5024652;28;19925;-49
2022/06/23 08:09:40;;;;;;;7.53;6.82;;;26.70;89.70;;;;;;5042235;28;20211;-51
2022/06/23 08:17:48;;;;;;;8.10;6.43;;;26.50;90.40;;;;;;5043800;28;20059;-46
2022/06/23 08:20:17;;;;;;;8.25;6.95;;;26.70;90.40;;;;;;5035772;28;20102;-51
2022/06/23 08:22:45;;;;;;;8.00;7.30;;;26.70;90.50;;;;;;5043624;28;20061;-48
2022/06/23 08:25:15;;;;;;;10.48;7.63;;;26.60;90.50;;;;;;5048061;28;20057;-47
2022/06/23 08:27:43;;;;;;;8.75;7.43;;;26.60;90.40;;;;;;5046918;28;20155;-47
2022/06/23 08:30:17;;;;;;;27.83;8.88;;;26.50;90.60;;;;;;5047660;28;20052;-46
2022/06/23 08:32:46;;;;;;;7.30;6.40;;;26.50;91.20;;;;;;5046249;28;20056;-46
2022/06/23 08:35:29;;;;;;;6.93;6.22;;;26.50;90.50;;;;;;5043522;28;20045;-49
2022/06/23 08:38:23;;;;;;;9.07;6.70;;;26.70;90.30;;;;;;5043752;28;20048;-47
2022/06/23 08:41:01;;;;;;;7.43;6.72;;;26.80;90.40;;;;;;4978345;28;20062;-46
2022/06/23 08:44:10;;;;;;;7.38;6.07;;;26.90;91.00;;;;;;4980822;28;20537;-46
2022/06/23 08:47:03;;;;;;;9.32;6.40;;;26.80;90.30;;;;;;4979574;28;20062;-46
2022/06/23 08:49:36;;;;;;;9.10;5.18;;;26.70;90.40;;;;;;4981051;28;20512;-49
2022/06/23 08:52:28;;;;;;;7.45;5.55;;;26.70;89.90;;;;;;4980367;28;20062;-45
2022/06/23 08:55:10;;;;;;;6.03;5.43;;;26.50;90.00;;;;;;4959131;28;20057;-46
2022/06/23 08:58:07;;;;;;;10.35;5.28;;;26.50;90.20;;;;;;4983102;28;20520;-45
2022/06/23 09:01:02;;;;;;;6.18;5.45;;;26.50;90.40;;;;;;4979874;28;20635;-46
2022/06/23 09:04:05;;;;;;;7.22;4.95;;;26.60;90.20;;;;;;4943096;29;20597;-47
2022/06/23 09:06:34;;;;;;;7.07;4.70;;;26.70;90.60;;;;;;4926294;29;20051;-51
2022/06/23 09:09:24;;;;;;;7.88;5.10;;;26.80;90.40;;;;;;4942186;29;20250;-48
2022/06/23 09:12:27;;;;;;;6.82;4.68;;;27.00;87.80;;;;;;4942021;29;20153;-46
2022/06/23 09:15:20;;;;;;;8.70;5.55;;;27.10;88.50;;;;;;4927789;29;20071;-47
2022/06/23 09:18:00;;;;;;;8.68;5.60;;;27.00;90.30;;;;;;4929026;28;20058;-48
2022/06/23 09:20:55;;;;;;;5.75;4.45;;;27.00;89.70;;;;;;4961610;28;20060;-51
2022/06/23 09:23:44;;;;;;;5.30;4.53;;;26.90;90.40;;;;;;4961146;28;20486;-48
2022/06/23 09:26:24;;;;;;;6.68;4.03;;;27.10;89.50;;;;;;4960929;28;20055;-46
2022/06/23 09:29:11;;;;;;;5.40;3.67;;;27.20;89.50;;;;;;4961710;28;20094;-49
2022/06/23 09:31:55;;;;;;;6.35;4.25;;;27.40;88.40;;;;;;4961978;28;20058;-49
2022/06/23 09:34:45;;;;;;;5.93;4.00;;;27.30;88.00;;;;;;4963224;28;20062;-50
2022/06/23 09:37:24;;;;;;;6.15;3.88;;;27.30;86.90;;;;;;4961828;28;20466;-47
2022/06/23 09:39:58;;;;;;;5.90;3.50;;;27.40;88.60;;;;;;4980032;28;20427;-53
2022/06/23 09:42:32;;;;;;;6.78;4.28;;;27.40;88.00;;;;;;5038453;28;20060;-50
2022/06/23 09:45:20;;;;;;;4.28;3.67;;;27.40;87.60;;;;;;5042309;28;20061;-50
2022/06/23 09:48:06;;;;;;;5.65;4.15;;;27.40;87.90;;;;;;5041662;28;20503;-47
2022/06/23 09:50:47;;;;;;;5.45;3.92;;;27.50;89.20;;;;;;5041796;28;20053;-46
2022/06/23 09:53:15;;;;;;;6.78;4.65;;;27.60;87.30;;;;;;5040573;28;20140;-49
2022/06/23 09:56:10;;;;;;;6.22;4.07;;;27.70;87.60;;;;;;5042172;28;20049;-46
2022/06/23 09:58:48;;;;;;;4.30;3.88;;;27.80;88.60;;;;;;5024049;28;20600;-50
2022/06/23 10:01:17;;;;;;;6.88;4.18;;;27.90;88.30;;;;;;5042278;28;20425;-49
2022/06/23 10:04:15;;;;;;;9.45;3.97;;;27.90;87.80;;;;;;5040277;28;20060;-48
2022/06/23 10:06:46;;;;;;;8.50;4.40;;;27.80;89.00;;;;;;4979559;28;20072;-47
2022/06/23 10:09:33;;;;;;;7.53;4.13;;;27.80;87.80;;;;;;4962799;28;20066;-49
2022/06/23 10:12:16;;;;;;;5.80;3.67;;;27.80;87.40;;;;;;4963340;28;20500;-45
2022/06/23 10:14:57;;;;;;;6.72;3.65;;;27.80;87.40;;;;;;4979440;28;20496;-48
2022/06/23 10:17:36;;;;;;;6.38;4.30;;;28.00;88.00;;;;;;4979429;28;20141;-48
2022/06/23 10:20:34;;;;;;;7.32;4.68;;;28.10;88.50;;;;;;4979450;28;20073;-48
2022/06/23 10:23:18;;;;;;;4.38;3.97;;;28.10;89.80;;;;;;4979199;28;20062;-47
2022/06/23 10:26:11;;;;;;;6.82;3.95;;;28.30;87.80;;;;;;4976810;28;20406;-47
2022/06/23 10:28:48;;;;;;;6.15;3.60;;;28.30;86.30;;;;;;4977593;28;20137;-48
2022/06/23 10:31:52;;;;;;;5.63;3.92;;;28.20;86.40;;;;;;4962610;28;20042;-47
2022/06/23 10:34:40;;;;;;;5.60;3.97;;;28.30;87.00;;;;;;4979090;28;20540;-47
2022/06/23 10:37:20;;;;;;;5.18;3.65;;;28.50;87.20;;;;;;4962776;28;20058;-52
2022/06/23 10:40:34;;;;;;;10.68;3.70;;;28.60;85.90;;;;;;4980099;28;20592;-50
2022/06/23 10:42:59;;;;;;;;;;;28.70;85.10;;;;;;5026962;28;20265;-45
2022/06/23 10:46:03;;;;;;;8.23;3.50;;;28.90;85.10;;;;;;5040097;28;19971;-48
2022/06/23 10:48:50;;;;;;;7.07;3.53;;;29.00;85.80;;;;;;5038103;28;20463;-49
2022/06/23 10:51:31;;;;;;;5.40;4.03;;;29.00;85.00;;;;;;5041512;28;20096;-44
2022/06/23 10:54:16;;;;;;;5.82;3.63;;;29.10;85.10;;;;;;5040136;28;20130;-45
2022/06/23 10:57:08;;;;;;;5.57;3.53;;;29.20;85.60;;;;;;5036278;28;20053;-48
2022/06/23 10:59:34;;;;;;;4.72;3.90;;;29.30;85.20;;;;;;5026055;28;20064;-51
2022/06/23 11:02:38;;;;;;;4.97;3.60;;;29.10;84.10;;;;;;5041284;28;20495;-48
2022/06/23 11:05:18;;;;;;;5.78;3.80;;;29.00;87.20;;;;;;5045241;28;20053;-47
2022/06/23 11:08:04;;;;;;;8.50;4.10;;;29.00;85.20;;;;;;5043709;28;20659;-52
2022/06/23 11:10:51;;;;;;;6.60;3.90;;;29.00;85.00;;;;;;5042168;28;20169;-52
2022/06/23 11:13:56;;;;;;;6.45;3.65;;;29.00;84.30;;;;;;5040968;28;20056;-52
2022/06/23 11:16:29;;;;;;;5.13;4.00;;;29.00;85.10;;;;;;5040585;28;20665;-47
2022/06/23 11:19:08;;;;;;;6.38;4.65;;;29.00;84.90;;;;;;5044013;28;20345;-47
2022/06/23 11:22:01;;;;;;;4.25;3.60;;;29.00;85.40;;;;;;5023689;28;20130;-46
2022/06/23 11:24:39;;;;;;;;;;;29.00;84.70;;;;;;5020955;28;20087;-53
2022/06/23 11:27:30;;;;;;;4.65;4.20;;;29.00;85.00;;;;;;5043808;28;19928;-45
2022/06/23 11:30:08;;;;;;;7.13;3.92;;;29.00;85.20;;;;;;5044381;28;20399;-47
2022/06/23 11:32:59;;;;;;;5.03;3.80;;;29.00;84.70;;;;;;5043769;28;20544;-51
2022/06/23 11:35:28;;;;;;;6.43;3.83;;;29.10;85.90;;;;;;5043570;28;20503;-53
2022/06/23 11:38:16;;;;;;;6.63;4.45;;;29.20;85.90;;;;;;5044445;28;20050;-51
2022/06/23 11:40:47;;;;;;;5.95;3.85;;;29.30;87.20;;;;;;5044075;28;20044;-47
2022/06/23 11:43:17;;;;;;;6.60;4.63;;;29.50;87.70;;;;;;5044201;28;20135;-47
2022/06/23 11:45:50;;;;;;;7.20;4.00;;;29.60;88.00;;;;;;5044336;28;20417;-49
2022/06/23 11:48:35;;;;;;;7.50;4.40;;;29.90;87.40;;;;;;5044646;28;20068;-45
2022/06/23 11:51:37;;;;;;;8.88;4.65;;;29.90;86.40;;;;;;5044213;28;20554;-49
2022/06/23 11:54:14;;;;;;;10.50;4.97;;;29.90;85.60;;;;;;5022984;28;20061;-46
2022/06/23 11:56:52;;;;;;;6.05;4.10;;;29.80;85.60;;;;;;5022756;28;20891;-49
2022/06/23 11:59:45;;;;;;;5.40;4.22;;;29.90;86.70;;;;;;5017635;28;20075;-49
2022/06/23 12:02:11;;;;;;;7.00;4.57;;;30.00;86.30;;;;;;5043153;28;20053;-48
2022/06/23 12:04:51;;;;;;;5.55;4.28;;;30.00;85.50;;;;;;5043468;28;20055;-50
2022/06/23 12:07:35;;;;;;;7.05;4.93;;;30.00;86.80;;;;;;5044114;28;20045;-50
2022/06/23 12:10:26;;;;;;;9.27;4.10;;;29.90;86.40;;;;;;5043420;28;20446;-45
2022/06/23 12:12:56;;;;;;;6.45;4.93;;;30.00;86.40;;;;;;5022768;28;20520;-47
2022/06/23 12:15:27;;;;;;;6.05;4.15;;;30.00;88.40;;;;;;5034637;28;20510;-50
2022/06/23 12:18:10;;;;;;;5.37;4.50;;;30.00;86.00;;;;;;5043871;28;20083;-46
2022/06/23 12:20:56;;;;;;;5.38;4.03;;;30.10;85.60;;;;;;5043775;28;20045;-48
2022/06/23 12:23:33;;;;;;;7.32;3.60;;;30.10;86.10;;;;;;5043378;28;20314;-50
2022/06/23 12:26:36;;;;;;;6.35;3.90;;;30.10;85.20;;;;;;5018921;28;20045;-46
2022/06/23 12:29:09;;;;;;;5.10;3.75;;;30.10;86.90;;;;;;5044120;28;20493;-44
2022/06/23 12:31:57;;;;;;;8.43;3.60;;;30.20;85.20;;;;;;5035751;28;20040;-47
2022/06/23 12:34:50;;;;;;;6.63;3.50;;;30.30;82.90;;;;;;5043405;28;20049;-49
2022/06/23 12:37:40;;;;;;;8.60;3.90;;;30.30;82.90;;;;;;5039235;28;20041;-50
2022/06/23 12:40:17;;;;;;;4.03;3.38;;;30.30;82.80;;;;;;5045072;28;20102;-50
2022/06/23 12:42:47;;;;;;;8.27;3.40;;;30.40;85.90;;;;;;5041091;28;20056;-50
2022/06/23 12:45:31;;;;;;;5.22;3.50;;;30.40;86.20;;;;;;5043090;28;20053;-52
2022/06/23 12:48:06;;;;;;;5.72;3.50;;;30.50;83.30;;;;;;5043625;28;20057;-52
2022/06/23 12:50:55;;;;;;;7.70;3.30;;;30.40;83.20;;;;;;5042606;28;20053;-49
2022/06/23 12:53:37;;;;;;;5.60;3.28;;;30.40;82.90;;;;;;5042426;28;20053;-49
2022/06/23 12:56:35;;;;;;;4.03;3.63;;;30.40;83.00;;;;;;5042452;28;20693;-45
2022/06/23 12:59:30;;;;;;;5.57;3.75;;;30.40;81.90;;;;;;4980342;28;20551;-51
2022/06/23 13:02:13;;;;;;;4.85;3.58;;;30.40;84.00;;;;;;4978685;28;20054;-47
2022/06/23 13:04:51;;;;;;;6.35;3.20;;;30.50;82.20;;;;;;4979870;28;20125;-49
2022/06/23 13:07:23;;;;;;;6.90;3.28;;;30.50;81.00;;;;;;4963665;28;20054;-49
2022/06/23 13:09:58;;;;;;;6.20;3.13;;;30.60;81.60;;;;;;4980794;28;20236;-48
2022/06/23 13:12:47;;;;;;;5.97;3.05;;;30.50;83.10;;;;;;4963188;28;20072;-52
2022/06/23 13:15:54;;;;;;;3.80;3.03;;;30.60;82.10;;;;;;4979559;28;20074;-49
2022/06/23 13:18:29;;;;;;;6.72;3.67;;;30.50;80.80;;;;;;5042193;28;20102;-47
2022/06/23 13:21:20;;;;;;;6.00;2.97;;;30.60;82.10;;;;;;5045128;28;20090;-47
2022/06/23 13:23:57;;;;;;;3.63;3.17;;;30.60;82.30;;;;;;5062115;28;20044;-49
2022/06/23 13:27:00;;;;;;;5.55;2.90;;;30.70;85.30;;;;;;5063132;28;20052;-50
2022/06/23 13:29:59;;;;;;;5.78;3.17;;;30.80;85.60;;;;;;5062578;28;20051;-52
2022/06/23 13:32:47;;;;;;;5.60;3.15;;;30.90;81.60;;;;;;4964140;28;20456;-50
2022/06/23 13:35:21;;;;;;;7.47;3.38;;;30.90;82.00;;;;;;4978815;28;20090;-50
2022/06/23 13:38:15;;;;;;;8.70;3.25;;;30.90;82.90;;;;;;4940138;28;20361;-49
2022/06/23 13:40:55;;;;;;;4.30;2.95;;;30.90;84.10;;;;;;4972833;28;20489;-46
2022/06/23 13:44:08;;;;;;;7.22;3.28;;;30.90;84.10;;;;;;4963467;28;20070;-48
2022/06/23 13:47:04;;;;;;;4.65;3.88;;;31.00;83.10;;;;;;4971746;28;20237;-48
2022/06/23 13:49:42;;;;;;;6.63;2.90;;;31.00;82.50;;;;;;4980535;28;20642;-48
2022/06/23 13:52:24;;;;;;;3.47;2.88;;;30.90;83.70;;;;;;4979070;28;20061;-48
2022/06/23 13:55:29;;;;;;;4.63;3.20;;;30.90;81.80;;;;;;4978710;28;20081;-49
2022/06/23 13:58:05;;;;;;;7.78;2.80;;;31.00;81.50;;;;;;4974723;28;20094;-48
2022/06/23 14:00:53;;;;;;;6.05;3.35;;;30.90;81.90;;;;;;4945856;28;20054;-48
2022/06/23 14:03:55;;;;;;;4.57;3.15;;;30.90;81.70;;;;;;4973416;28;20069;-50